createdAt,value
2018-08-28T00:02:20.685Z,6.60
2018-08-28T00:07:05.382Z,5.13
2018-08-28T00:11:48.829Z,5.33
2018-08-28T00:16:33.280Z,6.23
2018-08-28T00:21:16.619Z,6.17
2018-08-28T00:26:00.498Z,5.67
2018-08-28T00:30:44.131Z,4.93
2018-08-28T00:35:27.404Z,4.47
2018-08-28T00:40:10.831Z,4.97
2018-08-28T00:44:54.027Z,4.40
2018-08-28T00:49:37.433Z,4.40
2018-08-28T00:54:29.042Z,4.20
2018-08-28T00:59:12.650Z,3.90
2018-08-28T01:03:56.030Z,5.00
2018-08-28T01:08:39.644Z,4.67
2018-08-28T01:13:22.974Z,5.10
2018-08-28T01:18:07.190Z,4.60
2018-08-28T01:22:50.492Z,5.00
2018-08-28T01:27:33.979Z,4.90
2018-08-28T01:32:17.423Z,5.03
2018-08-28T01:37:01.840Z,5.17
2018-08-28T01:41:45.106Z,5.07
2018-08-28T01:46:29.625Z,5.50
2018-08-28T01:51:12.987Z,5.57
2018-08-28T01:55:57.522Z,4.93
2018-08-28T02:00:40.962Z,5.20
2018-08-28T02:05:24.675Z,5.17
2018-08-28T02:10:09.210Z,3.90
2018-08-28T02:14:52.590Z,4.43
2018-08-28T02:19:37.010Z,5.63
2018-08-28T02:24:20.784Z,4.70
2018-08-28T02:29:04.355Z,5.07
2018-08-28T02:33:47.656Z,4.40
2018-08-28T02:38:31.123Z,4.40
2018-08-28T02:43:14.457Z,4.27
2018-08-28T02:47:58.980Z,4.37
2018-08-28T02:52:42.355Z,4.53
2018-08-28T02:57:25.949Z,4.13
2018-08-28T03:02:09.404Z,4.87
2018-08-28T03:06:52.995Z,4.07
2018-08-28T03:11:36.485Z,3.93
2018-08-28T03:16:19.853Z,4.10
2018-08-28T03:21:03.453Z,4.13
2018-08-28T03:25:50.186Z,5.00
2018-08-28T03:30:33.642Z,4.50
2018-08-28T03:35:17.155Z,4.17
2018-08-28T03:40:00.512Z,4.27
2018-08-28T03:44:43.808Z,4.70
2018-08-28T03:49:27.162Z,5.17
2018-08-28T03:54:10.527Z,5.40
2018-08-28T03:58:57.313Z,4.67
2018-08-28T04:03:40.663Z,4.93
2018-08-28T04:08:24.112Z,5.27
2018-08-28T04:13:07.614Z,5.20
2018-08-28T04:17:52.144Z,5.53
2018-08-28T04:22:35.611Z,5.30
2018-08-28T04:27:18.892Z,5.53
2018-08-28T04:32:03.372Z,6.37
2018-08-28T04:36:47.261Z,5.60
2018-08-28T04:41:30.711Z,6.30
2018-08-28T04:46:15.272Z,6.77
2018-08-28T04:50:58.801Z,6.80
2018-08-28T04:55:42.474Z,6.63
2018-08-28T05:00:25.914Z,7.03
2018-08-28T05:05:10.148Z,7.13
2018-08-28T05:09:53.519Z,8.27
2018-08-28T05:14:37.012Z,13.53
2018-08-28T05:19:27.859Z,7.80
2018-08-28T05:24:11.311Z,7.30
2018-08-28T05:28:54.847Z,7.03
2018-08-28T05:33:40.716Z,7.57
2018-08-28T05:38:25.344Z,8.13
2018-08-28T05:43:08.877Z,7.20
2018-08-28T05:48:03.269Z,9.10
2018-08-28T05:52:46.822Z,8.00
2018-08-28T05:57:30.350Z,7.43
2018-08-28T06:02:14.905Z,7.30
2018-08-28T06:07:00.108Z,7.23
2018-08-28T06:11:44.431Z,6.80
2018-08-28T06:16:28.742Z,6.50
2018-08-28T06:21:16.401Z,7.03
2018-08-28T06:26:04.230Z,7.00
2018-08-28T06:30:47.597Z,6.93
2018-08-28T06:35:32.674Z,7.20
2018-08-28T06:40:16.670Z,6.87
2018-08-28T06:45:01.088Z,7.03
2018-08-28T06:49:44.554Z,7.87
2018-08-28T06:54:27.884Z,7.13
2018-08-28T06:59:12.190Z,7.83
2018-08-28T07:03:55.656Z,8.53
2018-08-28T07:08:39.191Z,7.77
2018-08-28T07:13:22.734Z,8.10
2018-08-28T07:18:06.275Z,8.53
2018-08-28T07:22:50.035Z,9.23
2018-08-28T07:27:33.564Z,8.80
2018-08-28T07:32:17.166Z,9.07
2018-08-28T07:37:00.626Z,8.50
2018-08-28T07:41:44.087Z,9.40
2018-08-28T07:46:28.700Z,9.40
2018-08-28T07:51:12.033Z,8.93
2018-08-28T07:55:56.480Z,8.97
2018-08-28T08:00:39.954Z,10.53
2018-08-28T08:05:26.082Z,10.20
2018-08-28T08:10:09.514Z,9.77
2018-08-28T08:14:53.817Z,10.03
2018-08-28T08:19:37.289Z,9.80
2018-08-28T08:24:20.736Z,10.93
2018-08-28T08:29:04.353Z,11.00
2018-08-28T08:33:47.851Z,12.43
2018-08-28T08:38:31.367Z,11.10
2018-08-28T08:43:14.727Z,11.87
2018-08-28T08:47:58.281Z,11.00
2018-08-28T08:52:41.662Z,12.20
2018-08-28T08:57:25.424Z,17.27
2018-08-28T09:02:09.063Z,14.73
2018-08-28T09:06:53.824Z,16.97
2018-08-28T09:11:37.216Z,16.40
2018-08-28T09:16:20.830Z,17.13
2018-08-28T09:21:04.355Z,12.10
2018-08-28T09:25:48.940Z,14.53
2018-08-28T09:30:32.310Z,12.93
2018-08-28T09:35:19.557Z,11.37
2018-08-28T09:40:03.211Z,11.77
2018-08-28T09:44:46.569Z,10.10
2018-08-28T09:49:29.986Z,9.83
2018-08-28T09:54:13.332Z,9.23
2018-08-28T09:58:56.743Z,9.53
2018-08-28T10:03:40.169Z,9.23
2018-08-28T10:08:24.589Z,9.23
2018-08-28T10:13:08.057Z,9.50
2018-08-28T10:17:51.673Z,9.30
2018-08-28T10:22:35.071Z,9.07
2018-08-28T10:27:18.693Z,8.77
2018-08-28T10:32:02.049Z,8.93
2018-08-28T10:36:45.727Z,9.43
2018-08-28T10:41:29.150Z,8.60
2018-08-28T10:46:12.862Z,8.90
2018-08-28T10:50:55.978Z,8.37
2018-08-28T10:55:39.509Z,8.50
2018-08-28T11:00:22.923Z,7.30
2018-08-28T11:05:06.460Z,6.57
2018-08-28T11:09:50.114Z,8.37
2018-08-28T11:14:33.661Z,7.27
2018-08-28T11:19:17.109Z,6.77
2018-08-28T11:24:00.649Z,7.50
2018-08-28T11:28:44.110Z,7.70
2018-08-28T11:33:27.614Z,6.50
2018-08-28T11:38:11.137Z,5.70
2018-08-28T11:42:54.673Z,6.78
2018-08-28T11:47:40.126Z,6.58
2018-08-28T11:52:23.588Z,7.30
2018-08-28T11:57:07.562Z,5.65
2018-08-28T12:01:50.957Z,5.58
2018-08-28T12:06:34.348Z,5.97
2018-08-28T12:11:17.695Z,5.53
2018-08-28T12:16:02.046Z,4.85
2018-08-28T12:20:45.430Z,4.00
2018-08-28T12:25:30.737Z,2.85
2018-08-28T12:30:15.393Z,2.62
2018-08-28T12:34:58.874Z,2.60
2018-08-28T12:39:42.258Z,2.80
2018-08-28T12:44:29.132Z,2.40
2018-08-28T12:49:12.594Z,2.47
2018-08-28T12:53:55.970Z,2.45
2018-08-28T12:58:40.508Z,3.55
2018-08-28T13:03:24.607Z,2.70
2018-08-28T13:08:08.155Z,3.12
2018-08-28T13:12:51.662Z,2.50
2018-08-28T13:17:38.065Z,3.22
2018-08-28T13:22:21.454Z,4.22
2018-08-28T13:27:05.598Z,3.15
2018-08-28T13:31:48.947Z,4.00
2018-08-28T13:36:32.369Z,2.87
2018-08-28T13:41:15.801Z,2.55
2018-08-28T13:46:00.458Z,2.90
2018-08-28T13:50:44.257Z,3.47
2018-08-28T13:55:33.520Z,3.70
2018-08-28T14:00:16.906Z,3.42
2018-08-28T14:05:00.412Z,2.75
2018-08-28T14:09:44.180Z,2.62
2018-08-28T14:14:27.769Z,3.20
2018-08-28T14:19:10.941Z,3.95
2018-08-28T14:23:54.546Z,3.10
2018-08-28T14:28:38.096Z,2.95
2018-08-28T14:33:21.408Z,2.80
2018-08-28T14:38:05.019Z,3.12
